sensor_id;sensor_type;location;lat;lon;timestamp;temperature;humidity
22035;DHT22;11181;51.002;4.356;2022-08-21T00:00:21;20.80;99.90
22035;DHT22;11181;51.002;4.356;2022-08-21T00:02:51;20.80;99.90
22035;DHT22;11181;51.002;4.356;2022-08-21T00:05:19;20.80;99.90
22035;DHT22;11181;51.002;4.356;2022-08-21T00:07:47;20.80;99.90
22035;DHT22;11181;51.002;4.356;2022-08-21T00:10:15;20.80;99.90
22035;DHT22;11181;51.002;4.356;2022-08-21T00:12:44;20.70;99.90
22035;DHT22;11181;51.002;4.356;2022-08-21T00:15:12;20.80;99.90
22035;DHT22;11181;51.002;4.356;2022-08-21T00:17:40;20.80;99.90
22035;DHT22;11181;51.002;4.356;2022-08-21T00:20:10;20.70;99.90
22035;DHT22;11181;51.002;4.356;2022-08-21T00:22:37;20.70;99.90
22035;DHT22;11181;51.002;4.356;2022-08-21T00:25:06;20.70;99.90
22035;DHT22;11181;51.002;4.356;2022-08-21T00:27:33;20.60;99.90
22035;DHT22;11181;51.002;4.356;2022-08-21T00:30:04;20.60;99.90
22035;DHT22;11181;51.002;4.356;2022-08-21T00:32:31;20.50;99.90
22035;DHT22;11181;51.002;4.356;2022-08-21T00:34:58;20.40;99.90
22035;DHT22;11181;51.002;4.356;2022-08-21T00:37:25;20.40;99.90
22035;DHT22;11181;51.002;4.356;2022-08-21T00:39:52;20.30;99.90
22035;DHT22;11181;51.002;4.356;2022-08-21T00:42:19;20.30;99.90
22035;DHT22;11181;51.002;4.356;2022-08-21T00:44:48;20.30;99.90
22035;DHT22;11181;51.002;4.356;2022-08-21T00:47:17;20.30;99.90
22035;DHT22;11181;51.002;4.356;2022-08-21T00:49:44;20.20;99.90
22035;DHT22;11181;51.002;4.356;2022-08-21T00:52:15;20.20;99.90
22035;DHT22;11181;51.002;4.356;2022-08-21T00:54:44;20.00;99.90
22035;DHT22;11181;51.002;4.356;2022-08-21T00:57:14;20.00;99.90
22035;DHT22;11181;51.002;4.356;2022-08-21T00:59:45;19.90;99.90
22035;DHT22;11181;51.002;4.356;2022-08-21T01:02:13;19.80;99.90
22035;DHT22;11181;51.002;4.356;2022-08-21T01:04:41;19.90;99.90
22035;DHT22;11181;51.002;4.356;2022-08-21T01:07:08;19.90;99.90
22035;DHT22;11181;51.002;4.356;2022-08-21T01:09:36;19.90;99.90
22035;DHT22;11181;51.002;4.356;2022-08-21T01:12:03;19.90;99.90
22035;DHT22;11181;51.002;4.356;2022-08-21T01:14:30;19.80;99.90
22035;DHT22;11181;51.002;4.356;2022-08-21T01:16:58;19.90;99.90
22035;DHT22;11181;51.002;4.356;2022-08-21T01:19:27;19.90;99.90
22035;DHT22;11181;51.002;4.356;2022-08-21T01:21:55;19.90;99.90
22035;DHT22;11181;51.002;4.356;2022-08-21T01:24:23;20.00;99.90
22035;DHT22;11181;51.002;4.356;2022-08-21T01:26:51;20.00;99.90
22035;DHT22;11181;51.002;4.356;2022-08-21T01:29:26;20.00;99.90
22035;DHT22;11181;51.002;4.356;2022-08-21T01:31:56;20.00;99.90
22035;DHT22;11181;51.002;4.356;2022-08-21T01:34:23;19.90;99.90
22035;DHT22;11181;51.002;4.356;2022-08-21T01:36:50;19.90;99.90
22035;DHT22;11181;51.002;4.356;2022-08-21T01:39:18;19.80;99.90
22035;DHT22;11181;51.002;4.356;2022-08-21T01:41:45;19.80;99.90
22035;DHT22;11181;51.002;4.356;2022-08-21T01:44:12;19.70;99.90
22035;DHT22;11181;51.002;4.356;2022-08-21T01:46:38;19.70;99.90
22035;DHT22;11181;51.002;4.356;2022-08-21T01:49:06;19.70;99.90
22035;DHT22;11181;51.002;4.356;2022-08-21T01:51:33;19.70;99.90
22035;DHT22;11181;51.002;4.356;2022-08-21T01:53:59;19.60;99.90
22035;DHT22;11181;51.002;4.356;2022-08-21T01:56:28;19.60;99.90
22035;DHT22;11181;51.002;4.356;2022-08-21T01:58:55;19.60;99.90
22035;DHT22;11181;51.002;4.356;2022-08-21T02:01:22;19.50;99.90
22035;DHT22;11181;51.002;4.356;2022-08-21T02:03:48;19.50;99.90
22035;DHT22;11181;51.002;4.356;2022-08-21T02:06:16;19.50;99.90
22035;DHT22;11181;51.002;4.356;2022-08-21T02:08:44;19.50;99.90
22035;DHT22;11181;51.002;4.356;2022-08-21T02:11:11;19.40;99.90
22035;DHT22;11181;51.002;4.356;2022-08-21T02:13:39;19.40;99.90
22035;DHT22;11181;51.002;4.356;2022-08-21T02:16:06;19.30;99.90
22035;DHT22;11181;51.002;4.356;2022-08-21T02:18:33;19.30;99.90
22035;DHT22;11181;51.002;4.356;2022-08-21T02:21:01;19.30;99.90
22035;DHT22;11181;51.002;4.356;2022-08-21T02:23:28;19.30;99.90
22035;DHT22;11181;51.002;4.356;2022-08-21T02:25:57;19.30;99.90
22035;DHT22;11181;51.002;4.356;2022-08-21T02:28:25;19.20;99.90
22035;DHT22;11181;51.002;4.356;2022-08-21T02:30:55;19.20;99.90
22035;DHT22;11181;51.002;4.356;2022-08-21T02:33:23;19.20;99.90
22035;DHT22;11181;51.002;4.356;2022-08-21T02:35:50;19.20;99.90
22035;DHT22;11181;51.002;4.356;2022-08-21T02:38:21;19.20;99.90
22035;DHT22;11181;51.002;4.356;2022-08-21T02:40:50;19.30;99.90
22035;DHT22;11181;51.002;4.356;2022-08-21T02:43:18;19.30;99.90
22035;DHT22;11181;51.002;4.356;2022-08-21T02:45:46;19.30;99.90
22035;DHT22;11181;51.002;4.356;2022-08-21T02:48:17;19.20;99.90
22035;DHT22;11181;51.002;4.356;2022-08-21T02:50:47;19.10;99.90
22035;DHT22;11181;51.002;4.356;2022-08-21T02:53:15;19.20;99.90
22035;DHT22;11181;51.002;4.356;2022-08-21T02:55:44;19.20;99.90
22035;DHT22;11181;51.002;4.356;2022-08-21T02:58:13;19.20;99.90
22035;DHT22;11181;51.002;4.356;2022-08-21T03:00:41;19.20;99.90
22035;DHT22;11181;51.002;4.356;2022-08-21T03:03:09;19.20;99.90
22035;DHT22;11181;51.002;4.356;2022-08-21T03:05:38;19.20;99.90
22035;DHT22;11181;51.002;4.356;2022-08-21T03:08:07;19.10;99.90
22035;DHT22;11181;51.002;4.356;2022-08-21T03:10:35;19.00;99.90
22035;DHT22;11181;51.002;4.356;2022-08-21T03:13:02;19.00;99.90
22035;DHT22;11181;51.002;4.356;2022-08-21T03:15:30;19.00;99.90
22035;DHT22;11181;51.002;4.356;2022-08-21T03:17:57;19.00;99.90
22035;DHT22;11181;51.002;4.356;2022-08-21T03:20:26;19.00;99.90
22035;DHT22;11181;51.002;4.356;2022-08-21T03:22:55;19.00;99.90
22035;DHT22;11181;51.002;4.356;2022-08-21T03:25:23;19.00;99.90
22035;DHT22;11181;51.002;4.356;2022-08-21T03:27:51;18.90;99.90
22035;DHT22;11181;51.002;4.356;2022-08-21T03:30:20;18.90;99.90
22035;DHT22;11181;51.002;4.356;2022-08-21T03:32:48;18.90;99.90
22035;DHT22;11181;51.002;4.356;2022-08-21T03:35:16;18.80;99.90
22035;DHT22;11181;51.002;4.356;2022-08-21T03:37:44;18.80;99.90
22035;DHT22;11181;51.002;4.356;2022-08-21T03:40:14;18.80;99.90
22035;DHT22;11181;51.002;4.356;2022-08-21T03:42:41;18.80;99.90
22035;DHT22;11181;51.002;4.356;2022-08-21T03:45:09;18.90;99.90
22035;DHT22;11181;51.002;4.356;2022-08-21T03:47:36;18.90;99.90
22035;DHT22;11181;51.002;4.356;2022-08-21T03:50:04;18.90;99.90
22035;DHT22;11181;51.002;4.356;2022-08-21T03:52:31;18.80;99.90
22035;DHT22;11181;51.002;4.356;2022-08-21T03:54:58;18.80;99.90
22035;DHT22;11181;51.002;4.356;2022-08-21T03:57:26;18.80;99.90
22035;DHT22;11181;51.002;4.356;2022-08-21T03:59:53;18.70;99.90
22035;DHT22;11181;51.002;4.356;2022-08-21T04:02:21;18.70;99.90
22035;DHT22;11181;51.002;4.356;2022-08-21T04:04:47;18.70;99.90
22035;DHT22;11181;51.002;4.356;2022-08-21T04:07:14;18.60;99.90
22035;DHT22;11181;51.002;4.356;2022-08-21T04:09:41;18.60;99.90
22035;DHT22;11181;51.002;4.356;2022-08-21T04:12:08;18.70;99.90
22035;DHT22;11181;51.002;4.356;2022-08-21T04:14:37;18.70;99.90
22035;DHT22;11181;51.002;4.356;2022-08-21T04:17:04;18.70;99.90
22035;DHT22;11181;51.002;4.356;2022-08-21T04:19:31;18.70;99.90
22035;DHT22;11181;51.002;4.356;2022-08-21T04:21:58;18.70;99.90
22035;DHT22;11181;51.002;4.356;2022-08-21T04:24:24;18.80;99.90
22035;DHT22;11181;51.002;4.356;2022-08-21T04:26:51;18.80;99.90
22035;DHT22;11181;51.002;4.356;2022-08-21T04:29:18;18.80;99.90
22035;DHT22;11181;51.002;4.356;2022-08-21T04:31:47;18.90;99.90
22035;DHT22;11181;51.002;4.356;2022-08-21T04:34:14;18.80;99.90
22035;DHT22;11181;51.002;4.356;2022-08-21T04:36:40;18.80;99.90
22035;DHT22;11181;51.002;4.356;2022-08-21T04:39:07;18.70;99.90
22035;DHT22;11181;51.002;4.356;2022-08-21T04:41:34;18.70;99.90
22035;DHT22;11181;51.002;4.356;2022-08-21T04:44:03;18.70;99.90
22035;DHT22;11181;51.002;4.356;2022-08-21T04:46:30;18.70;99.90
22035;DHT22;11181;51.002;4.356;2022-08-21T04:48:58;18.60;99.90
22035;DHT22;11181;51.002;4.356;2022-08-21T04:51:29;18.50;99.90
22035;DHT22;11181;51.002;4.356;2022-08-21T04:53:59;18.50;99.90
22035;DHT22;11181;51.002;4.356;2022-08-21T04:56:30;18.50;99.90
22035;DHT22;11181;51.002;4.356;2022-08-21T04:59:00;18.50;99.90
22035;DHT22;11181;51.002;4.356;2022-08-21T05:01:29;18.50;99.90
22035;DHT22;11181;51.002;4.356;2022-08-21T05:03:59;18.40;99.90
22035;DHT22;11181;51.002;4.356;2022-08-21T05:06:29;18.40;99.90
22035;DHT22;11181;51.002;4.356;2022-08-21T05:08:58;18.40;99.90
22035;DHT22;11181;51.002;4.356;2022-08-21T05:11:25;18.40;99.90
22035;DHT22;11181;51.002;4.356;2022-08-21T05:13:52;18.40;99.90
22035;DHT22;11181;51.002;4.356;2022-08-21T05:16:19;18.40;99.90
22035;DHT22;11181;51.002;4.356;2022-08-21T05:18:46;18.40;99.90
22035;DHT22;11181;51.002;4.356;2022-08-21T05:21:14;18.40;99.90
22035;DHT22;11181;51.002;4.356;2022-08-21T05:23:41;18.40;99.90
22035;DHT22;11181;51.002;4.356;2022-08-21T05:26:08;18.50;99.90
22035;DHT22;11181;51.002;4.356;2022-08-21T05:28:35;18.50;99.90
22035;DHT22;11181;51.002;4.356;2022-08-21T05:31:02;18.30;99.90
22035;DHT22;11181;51.002;4.356;2022-08-21T05:33:28;18.30;99.90
22035;DHT22;11181;51.002;4.356;2022-08-21T05:35:56;18.30;99.90
22035;DHT22;11181;51.002;4.356;2022-08-21T05:38:25;18.30;99.90
22035;DHT22;11181;51.002;4.356;2022-08-21T05:40:54;18.50;99.90
22035;DHT22;11181;51.002;4.356;2022-08-21T05:43:21;18.60;99.90
22035;DHT22;11181;51.002;4.356;2022-08-21T05:45:48;18.60;99.90
22035;DHT22;11181;51.002;4.356;2022-08-21T05:48:18;18.70;99.90
22035;DHT22;11181;51.002;4.356;2022-08-21T05:50:47;18.80;99.90
22035;DHT22;11181;51.002;4.356;2022-08-21T05:53:15;18.90;99.90
22035;DHT22;11181;51.002;4.356;2022-08-21T05:55:44;19.00;99.90
22035;DHT22;11181;51.002;4.356;2022-08-21T05:58:11;19.10;99.90
22035;DHT22;11181;51.002;4.356;2022-08-21T06:00:38;19.20;99.90
22035;DHT22;11181;51.002;4.356;2022-08-21T06:03:10;19.30;99.90
22035;DHT22;11181;51.002;4.356;2022-08-21T06:05:37;19.30;99.90
22035;DHT22;11181;51.002;4.356;2022-08-21T06:08:04;19.40;99.90
22035;DHT22;11181;51.002;4.356;2022-08-21T06:10:31;19.50;99.90
22035;DHT22;11181;51.002;4.356;2022-08-21T06:12:59;19.60;99.90
22035;DHT22;11181;51.002;4.356;2022-08-21T06:15:26;19.70;99.90
22035;DHT22;11181;51.002;4.356;2022-08-21T06:17:54;19.70;99.90
22035;DHT22;11181;51.002;4.356;2022-08-21T06:20:21;19.80;99.90
22035;DHT22;11181;51.002;4.356;2022-08-21T06:22:48;19.70;99.90
22035;DHT22;11181;51.002;4.356;2022-08-21T06:25:15;19.70;99.90
22035;DHT22;11181;51.002;4.356;2022-08-21T06:27:42;19.70;99.90
22035;DHT22;11181;51.002;4.356;2022-08-21T06:30:11;19.70;99.90
22035;DHT22;11181;51.002;4.356;2022-08-21T06:32:38;19.80;99.90
22035;DHT22;11181;51.002;4.356;2022-08-21T06:35:06;19.80;99.90
22035;DHT22;11181;51.002;4.356;2022-08-21T06:37:33;19.70;99.90
22035;DHT22;11181;51.002;4.356;2022-08-21T06:40:00;19.70;99.90
22035;DHT22;11181;51.002;4.356;2022-08-21T06:42:27;19.80;99.90
22035;DHT22;11181;51.002;4.356;2022-08-21T06:44:55;19.80;99.90
22035;DHT22;11181;51.002;4.356;2022-08-21T06:47:24;19.80;99.90
22035;DHT22;11181;51.002;4.356;2022-08-21T06:49:51;19.90;99.90
22035;DHT22;11181;51.002;4.356;2022-08-21T06:52:18;20.00;99.90
22035;DHT22;11181;51.002;4.356;2022-08-21T06:54:45;20.20;99.90
22035;DHT22;11181;51.002;4.356;2022-08-21T06:57:12;20.30;99.90
22035;DHT22;11181;51.002;4.356;2022-08-21T06:59:39;20.50;99.90
22035;DHT22;11181;51.002;4.356;2022-08-21T07:02:06;20.60;99.90
22035;DHT22;11181;51.002;4.356;2022-08-21T07:04:34;20.80;99.90
22035;DHT22;11181;51.002;4.356;2022-08-21T07:07:01;21.00;99.90
22035;DHT22;11181;51.002;4.356;2022-08-21T07:09:28;21.20;99.90
22035;DHT22;11181;51.002;4.356;2022-08-21T07:11:55;21.20;99.90
22035;DHT22;11181;51.002;4.356;2022-08-21T07:14:23;21.40;99.90
22035;DHT22;11181;51.002;4.356;2022-08-21T07:16:50;21.50;99.90
22035;DHT22;11181;51.002;4.356;2022-08-21T07:19:17;21.60;99.90
22035;DHT22;11181;51.002;4.356;2022-08-21T07:21:45;21.70;99.90
22035;DHT22;11181;51.002;4.356;2022-08-21T07:24:13;21.80;99.90
22035;DHT22;11181;51.002;4.356;2022-08-21T07:26:40;22.00;99.90
22035;DHT22;11181;51.002;4.356;2022-08-21T07:29:07;22.10;99.90
22035;DHT22;11181;51.002;4.356;2022-08-21T07:31:35;22.20;99.90
22035;DHT22;11181;51.002;4.356;2022-08-21T07:34:02;22.30;99.90
22035;DHT22;11181;51.002;4.356;2022-08-21T07:36:29;22.30;99.90
22035;DHT22;11181;51.002;4.356;2022-08-21T07:38:57;22.30;99.90
22035;DHT22;11181;51.002;4.356;2022-08-21T07:41:25;22.50;99.90
22035;DHT22;11181;51.002;4.356;2022-08-21T07:43:55;22.60;99.90
22035;DHT22;11181;51.002;4.356;2022-08-21T07:46:23;22.80;99.90
22035;DHT22;11181;51.002;4.356;2022-08-21T07:48:50;22.90;99.90
22035;DHT22;11181;51.002;4.356;2022-08-21T07:51:18;23.00;99.90
22035;DHT22;11181;51.002;4.356;2022-08-21T07:53:48;23.10;99.90
22035;DHT22;11181;51.002;4.356;2022-08-21T07:56:17;23.30;99.90
22035;DHT22;11181;51.002;4.356;2022-08-21T07:58:44;23.50;99.90
22035;DHT22;11181;51.002;4.356;2022-08-21T08:01:11;23.60;99.90
22035;DHT22;11181;51.002;4.356;2022-08-21T08:03:39;23.50;99.90
22035;DHT22;11181;51.002;4.356;2022-08-21T08:06:06;23.50;99.90
22035;DHT22;11181;51.002;4.356;2022-08-21T08:08:37;23.60;99.90
22035;DHT22;11181;51.002;4.356;2022-08-21T08:11:04;23.70;99.90
22035;DHT22;11181;51.002;4.356;2022-08-21T08:13:38;23.70;99.90
22035;DHT22;11181;51.002;4.356;2022-08-21T08:16:06;23.80;99.90
22035;DHT22;11181;51.002;4.356;2022-08-21T08:18:33;23.90;99.90
22035;DHT22;11181;51.002;4.356;2022-08-21T08:20:59;24.00;99.90
22035;DHT22;11181;51.002;4.356;2022-08-21T08:23:26;24.10;99.90
22035;DHT22;11181;51.002;4.356;2022-08-21T08:25:53;24.20;99.90
22035;DHT22;11181;51.002;4.356;2022-08-21T08:28:20;24.20;99.90
22035;DHT22;11181;51.002;4.356;2022-08-21T08:30:50;24.30;99.90
22035;DHT22;11181;51.002;4.356;2022-08-21T08:33:17;24.40;99.90
22035;DHT22;11181;51.002;4.356;2022-08-21T08:35:46;24.40;99.90
22035;DHT22;11181;51.002;4.356;2022-08-21T08:38:13;24.50;99.90
22035;DHT22;11181;51.002;4.356;2022-08-21T08:40:47;24.50;99.90
22035;DHT22;11181;51.002;4.356;2022-08-21T08:43:18;24.50;99.90
22035;DHT22;11181;51.002;4.356;2022-08-21T08:45:50;24.70;99.90
22035;DHT22;11181;51.002;4.356;2022-08-21T08:48:31;24.70;99.90
22035;DHT22;11181;51.002;4.356;2022-08-21T08:51:02;24.80;99.90
22035;DHT22;11181;51.002;4.356;2022-08-21T08:53:33;25.00;99.90
22035;DHT22;11181;51.002;4.356;2022-08-21T08:56:02;25.20;99.90
22035;DHT22;11181;51.002;4.356;2022-08-21T08:58:36;25.40;99.90
22035;DHT22;11181;51.002;4.356;2022-08-21T09:01:08;25.40;99.90
22035;DHT22;11181;51.002;4.356;2022-08-21T09:03:40;25.30;99.90
22035;DHT22;11181;51.002;4.356;2022-08-21T09:06:11;25.30;99.90
22035;DHT22;11181;51.002;4.356;2022-08-21T09:08:50;25.50;99.90
22035;DHT22;11181;51.002;4.356;2022-08-21T09:11:27;25.70;99.90
22035;DHT22;11181;51.002;4.356;2022-08-21T09:14:04;25.90;99.90
22035;DHT22;11181;51.002;4.356;2022-08-21T09:16:41;26.00;99.90
22035;DHT22;11181;51.002;4.356;2022-08-21T09:19:24;26.10;99.90
22035;DHT22;11181;51.002;4.356;2022-08-21T09:22:02;26.10;99.90
22035;DHT22;11181;51.002;4.356;2022-08-21T09:24:33;26.20;99.90
22035;DHT22;11181;51.002;4.356;2022-08-21T09:27:09;26.40;99.90
22035;DHT22;11181;51.002;4.356;2022-08-21T09:29:39;26.40;99.90
22035;DHT22;11181;51.002;4.356;2022-08-21T09:32:16;26.20;99.90
22035;DHT22;11181;51.002;4.356;2022-08-21T09:34:55;26.20;99.90
22035;DHT22;11181;51.002;4.356;2022-08-21T09:37:23;26.40;99.90
22035;DHT22;11181;51.002;4.356;2022-08-21T09:39:50;26.40;99.90
22035;DHT22;11181;51.002;4.356;2022-08-21T09:42:23;26.40;99.90
22035;DHT22;11181;51.002;4.356;2022-08-21T09:45:06;26.40;99.90
22035;DHT22;11181;51.002;4.356;2022-08-21T09:47:35;26.10;99.90
22035;DHT22;11181;51.002;4.356;2022-08-21T09:50:11;25.80;99.90
22035;DHT22;11181;51.002;4.356;2022-08-21T09:52:47;25.70;99.90
22035;DHT22;11181;51.002;4.356;2022-08-21T09:55:22;25.70;99.90
22035;DHT22;11181;51.002;4.356;2022-08-21T09:58:11;25.70;99.90
22035;DHT22;11181;51.002;4.356;2022-08-21T10:00:38;25.70;99.90
22035;DHT22;11181;51.002;4.356;2022-08-21T10:03:16;25.80;99.90
22035;DHT22;11181;51.002;4.356;2022-08-21T10:05:53;25.90;99.90
22035;DHT22;11181;51.002;4.356;2022-08-21T10:08:22;25.90;99.90
22035;DHT22;11181;51.002;4.356;2022-08-21T10:10:52;25.70;99.90
22035;DHT22;11181;51.002;4.356;2022-08-21T10:13:24;25.90;99.90
22035;DHT22;11181;51.002;4.356;2022-08-21T10:16:01;26.20;99.90
22035;DHT22;11181;51.002;4.356;2022-08-21T10:18:35;26.50;99.90
22035;DHT22;11181;51.002;4.356;2022-08-21T10:21:10;26.80;99.90
22035;DHT22;11181;51.002;4.356;2022-08-21T10:23:58;26.90;99.90
22035;DHT22;11181;51.002;4.356;2022-08-21T10:26:35;27.00;99.90
22035;DHT22;11181;51.002;4.356;2022-08-21T10:29:16;27.10;99.90
22035;DHT22;11181;51.002;4.356;2022-08-21T10:31:51;27.10;99.90
22035;DHT22;11181;51.002;4.356;2022-08-21T10:34:30;27.00;99.90
22035;DHT22;11181;51.002;4.356;2022-08-21T10:37:13;27.20;99.90
22035;DHT22;11181;51.002;4.356;2022-08-21T10:39:51;27.70;99.90
22035;DHT22;11181;51.002;4.356;2022-08-21T10:42:35;28.00;99.90
22035;DHT22;11181;51.002;4.356;2022-08-21T10:45:14;28.20;99.90
22035;DHT22;11181;51.002;4.356;2022-08-21T10:47:47;28.00;99.90
22035;DHT22;11181;51.002;4.356;2022-08-21T10:50:25;28.20;99.90
22035;DHT22;11181;51.002;4.356;2022-08-21T10:53:14;28.30;99.90
22035;DHT22;11181;51.002;4.356;2022-08-21T10:55:48;28.30;99.90
22035;DHT22;11181;51.002;4.356;2022-08-21T10:58:21;28.20;99.90
22035;DHT22;11181;51.002;4.356;2022-08-21T11:00:52;28.10;99.90
22035;DHT22;11181;51.002;4.356;2022-08-21T11:03:25;28.10;99.90
22035;DHT22;11181;51.002;4.356;2022-08-21T11:06:04;27.80;99.90
22035;DHT22;11181;51.002;4.356;2022-08-21T11:08:37;27.70;99.90
22035;DHT22;11181;51.002;4.356;2022-08-21T11:11:10;27.80;99.90
22035;DHT22;11181;51.002;4.356;2022-08-21T11:13:41;27.90;99.90
22035;DHT22;11181;51.002;4.356;2022-08-21T11:16:16;28.10;99.90
22035;DHT22;11181;51.002;4.356;2022-08-21T11:18:49;28.40;99.90
22035;DHT22;11181;51.002;4.356;2022-08-21T11:21:37;28.60;99.90
22035;DHT22;11181;51.002;4.356;2022-08-21T11:24:19;28.90;99.90
22035;DHT22;11181;51.002;4.356;2022-08-21T11:26:54;29.40;99.90
22035;DHT22;11181;51.002;4.356;2022-08-21T11:29:27;29.80;98.80
22035;DHT22;11181;51.002;4.356;2022-08-21T11:32:21;29.70;96.90
22035;DHT22;11181;51.002;4.356;2022-08-21T11:34:57;29.00;97.40
22035;DHT22;11181;51.002;4.356;2022-08-21T11:37:43;28.60;98.70
22035;DHT22;11181;51.002;4.356;2022-08-21T11:40:19;28.60;99.90
22035;DHT22;11181;51.002;4.356;2022-08-21T11:42:55;28.80;97.80
22035;DHT22;11181;51.002;4.356;2022-08-21T11:45:30;28.80;98.00
22035;DHT22;11181;51.002;4.356;2022-08-21T11:48:07;29.00;97.00
22035;DHT22;11181;51.002;4.356;2022-08-21T11:50:37;29.30;96.60
22035;DHT22;11181;51.002;4.356;2022-08-21T11:53:12;29.60;97.00
22035;DHT22;11181;51.002;4.356;2022-08-21T11:55:44;29.60;96.20
22035;DHT22;11181;51.002;4.356;2022-08-21T11:58:17;29.50;96.60
22035;DHT22;11181;51.002;4.356;2022-08-21T12:00:51;29.60;96.20
22035;DHT22;11181;51.002;4.356;2022-08-21T12:03:25;29.70;96.20
22035;DHT22;11181;51.002;4.356;2022-08-21T12:05:55;30.00;95.30
22035;DHT22;11181;51.002;4.356;2022-08-21T12:08:31;30.20;94.30
22035;DHT22;11181;51.002;4.356;2022-08-21T12:11:04;30.10;94.20
22035;DHT22;11181;51.002;4.356;2022-08-21T12:13:34;30.10;92.90
22035;DHT22;11181;51.002;4.356;2022-08-21T12:16:10;30.00;93.50
22035;DHT22;11181;51.002;4.356;2022-08-21T12:18:38;29.70;93.10
22035;DHT22;11181;51.002;4.356;2022-08-21T12:21:17;29.90;93.10
22035;DHT22;11181;51.002;4.356;2022-08-21T12:23:58;30.00;93.60
22035;DHT22;11181;51.002;4.356;2022-08-21T12:26:28;30.00;92.50
22035;DHT22;11181;51.002;4.356;2022-08-21T12:29:12;29.70;92.80
22035;DHT22;11181;51.002;4.356;2022-08-21T12:31:56;29.60;93.60
22035;DHT22;11181;51.002;4.356;2022-08-21T12:34:30;29.90;93.20
22035;DHT22;11181;51.002;4.356;2022-08-21T12:37:02;29.70;93.10
22035;DHT22;11181;51.002;4.356;2022-08-21T12:39:34;29.70;93.80
22035;DHT22;11181;51.002;4.356;2022-08-21T12:42:06;29.90;93.50
22035;DHT22;11181;51.002;4.356;2022-08-21T12:44:43;30.00;93.30
22035;DHT22;11181;51.002;4.356;2022-08-21T12:47:15;30.10;92.60
22035;DHT22;11181;51.002;4.356;2022-08-21T12:49:52;30.00;92.10
22035;DHT22;11181;51.002;4.356;2022-08-21T12:52:23;29.90;92.80
22035;DHT22;11181;51.002;4.356;2022-08-21T12:54:52;29.80;92.40
22035;DHT22;11181;51.002;4.356;2022-08-21T12:57:21;29.90;92.40
22035;DHT22;11181;51.002;4.356;2022-08-21T12:59:52;29.50;92.70
22035;DHT22;11181;51.002;4.356;2022-08-21T13:02:22;29.30;93.00
22035;DHT22;11181;51.002;4.356;2022-08-21T13:04:50;29.10;93.20
22035;DHT22;11181;51.002;4.356;2022-08-21T13:07:27;29.10;93.70
22035;DHT22;11181;51.002;4.356;2022-08-21T13:10:04;29.00;93.20
22035;DHT22;11181;51.002;4.356;2022-08-21T13:12:32;28.80;93.40
22035;DHT22;11181;51.002;4.356;2022-08-21T13:15:04;28.70;93.70
22035;DHT22;11181;51.002;4.356;2022-08-21T13:17:36;28.60;93.90
22035;DHT22;11181;51.002;4.356;2022-08-21T13:20:06;28.60;94.10
22035;DHT22;11181;51.002;4.356;2022-08-21T13:22:40;28.60;94.60
22035;DHT22;11181;51.002;4.356;2022-08-21T13:25:11;28.60;94.10
22035;DHT22;11181;51.002;4.356;2022-08-21T13:27:39;28.30;93.70
22035;DHT22;11181;51.002;4.356;2022-08-21T13:30:10;28.30;94.30
22035;DHT22;11181;51.002;4.356;2022-08-21T13:32:42;28.20;94.20
22035;DHT22;11181;51.002;4.356;2022-08-21T13:35:11;28.20;94.80
22035;DHT22;11181;51.002;4.356;2022-08-21T13:37:39;28.40;94.30
22035;DHT22;11181;51.002;4.356;2022-08-21T13:40:11;28.70;94.10
22035;DHT22;11181;51.002;4.356;2022-08-21T13:42:41;28.50;94.50
22035;DHT22;11181;51.002;4.356;2022-08-21T13:45:20;28.80;94.00
22035;DHT22;11181;51.002;4.356;2022-08-21T13:47:48;29.20;93.10
22035;DHT22;11181;51.002;4.356;2022-08-21T13:50:16;29.40;92.70
22035;DHT22;11181;51.002;4.356;2022-08-21T13:52:49;29.30;93.00
22035;DHT22;11181;51.002;4.356;2022-08-21T13:55:18;29.20;92.60
22035;DHT22;11181;51.002;4.356;2022-08-21T13:57:45;28.90;93.30
22035;DHT22;11181;51.002;4.356;2022-08-21T14:00:14;29.00;93.80
22035;DHT22;11181;51.002;4.356;2022-08-21T14:02:45;29.20;92.40
22035;DHT22;11181;51.002;4.356;2022-08-21T14:05:16;29.30;91.90
22035;DHT22;11181;51.002;4.356;2022-08-21T14:07:47;29.50;92.20
22035;DHT22;11181;51.002;4.356;2022-08-21T14:10:17;29.70;92.20
22035;DHT22;11181;51.002;4.356;2022-08-21T14:12:51;29.70;91.30
22035;DHT22;11181;51.002;4.356;2022-08-21T14:15:24;29.70;90.40
22035;DHT22;11181;51.002;4.356;2022-08-21T14:17:51;29.70;90.30
22035;DHT22;11181;51.002;4.356;2022-08-21T14:20:31;29.70;90.30
22035;DHT22;11181;51.002;4.356;2022-08-21T14:22:58;29.70;90.50
22035;DHT22;11181;51.002;4.356;2022-08-21T14:25:36;29.60;90.30
22035;DHT22;11181;51.002;4.356;2022-08-21T14:28:14;29.50;90.10
22035;DHT22;11181;51.002;4.356;2022-08-21T14:30:43;29.30;89.30
22035;DHT22;11181;51.002;4.356;2022-08-21T14:33:13;29.10;90.80
22035;DHT22;11181;51.002;4.356;2022-08-21T14:35:42;29.10;90.80
22035;DHT22;11181;51.002;4.356;2022-08-21T14:38:13;29.20;90.40
22035;DHT22;11181;51.002;4.356;2022-08-21T14:40:41;29.40;90.40
22035;DHT22;11181;51.002;4.356;2022-08-21T14:43:10;29.40;90.40
22035;DHT22;11181;51.002;4.356;2022-08-21T14:45:37;29.20;90.10
22035;DHT22;11181;51.002;4.356;2022-08-21T14:48:07;29.30;90.20
22035;DHT22;11181;51.002;4.356;2022-08-21T14:50:34;29.20;90.70
22035;DHT22;11181;51.002;4.356;2022-08-21T14:53:01;29.20;90.40
22035;DHT22;11181;51.002;4.356;2022-08-21T14:55:31;29.00;90.20
22035;DHT22;11181;51.002;4.356;2022-08-21T14:58:20;28.80;91.30
22035;DHT22;11181;51.002;4.356;2022-08-21T15:00:49;28.80;91.10
22035;DHT22;11181;51.002;4.356;2022-08-21T15:03:17;28.80;91.20
22035;DHT22;11181;51.002;4.356;2022-08-21T15:05:44;28.70;91.20
22035;DHT22;11181;51.002;4.356;2022-08-21T15:08:11;28.70;91.20
22035;DHT22;11181;51.002;4.356;2022-08-21T15:10:38;28.70;91.80
22035;DHT22;11181;51.002;4.356;2022-08-21T15:13:06;28.70;91.20
22035;DHT22;11181;51.002;4.356;2022-08-21T15:15:39;28.80;90.70
22035;DHT22;11181;51.002;4.356;2022-08-21T15:18:07;28.70;90.10
22035;DHT22;11181;51.002;4.356;2022-08-21T15:20:34;28.70;90.60
22035;DHT22;11181;51.002;4.356;2022-08-21T15:23:02;28.70;90.30
22035;DHT22;11181;51.002;4.356;2022-08-21T15:25:29;28.70;90.50
22035;DHT22;11181;51.002;4.356;2022-08-21T15:27:56;28.70;90.80
22035;DHT22;11181;51.002;4.356;2022-08-21T15:30:23;28.70;91.10
22035;DHT22;11181;51.002;4.356;2022-08-21T15:32:51;28.50;91.00
22035;DHT22;11181;51.002;4.356;2022-08-21T15:35:18;28.60;91.40
22035;DHT22;11181;51.002;4.356;2022-08-21T15:37:45;28.60;91.40
22035;DHT22;11181;51.002;4.356;2022-08-21T15:40:12;28.60;91.40
22035;DHT22;11181;51.002;4.356;2022-08-21T15:42:40;28.40;91.20
22035;DHT22;11181;51.002;4.356;2022-08-21T15:45:09;28.40;91.00
22035;DHT22;11181;51.002;4.356;2022-08-21T15:47:37;28.40;91.20